createdAt,value
2022-08-03T00:01:35.749Z,99.90
2022-08-03T00:04:03.122Z,99.90
2022-08-03T00:06:33.753Z,99.90
2022-08-03T00:09:07.451Z,99.90
2022-08-03T00:11:35.476Z,99.90
2022-08-03T00:14:02.735Z,99.90
2022-08-03T00:16:29.705Z,99.90
2022-08-03T00:18:56.533Z,99.90
2022-08-03T00:21:23.450Z,99.90
2022-08-03T00:23:51.498Z,99.90
2022-08-03T00:26:20.534Z,99.90
2022-08-03T00:28:47.653Z,99.90
2022-08-03T00:31:14.531Z,99.90
2022-08-03T00:33:58.083Z,99.90
2022-08-03T00:36:27.242Z,99.90
2022-08-03T00:38:54.364Z,99.90
2022-08-03T00:41:21.310Z,99.90
2022-08-03T00:43:48.533Z,99.90
2022-08-03T00:46:21.072Z,99.90
2022-08-03T00:48:51.808Z,99.90
2022-08-03T00:51:20.356Z,99.90
2022-08-03T00:53:47.300Z,99.90
2022-08-03T00:56:18.469Z,99.90
2022-08-03T00:58:46.528Z,99.90
2022-08-03T01:01:14.651Z,99.90
2022-08-03T01:03:41.931Z,99.90
2022-08-03T01:06:19.312Z,99.90
2022-08-03T01:09:07.546Z,99.90
2022-08-03T01:12:01.131Z,99.90
2022-08-03T01:14:32.596Z,99.90
2022-08-03T01:17:11.814Z,99.90
2022-08-03T01:19:44.952Z,99.90
2022-08-03T01:23:00.811Z,99.90
2022-08-03T01:25:46.103Z,99.90
2022-08-03T01:28:39.153Z,99.90
2022-08-03T01:31:08.765Z,99.90
2022-08-03T01:33:40.308Z,99.90
2022-08-03T01:36:15.452Z,99.90
2022-08-03T01:38:47.616Z,99.90
2022-08-03T01:41:20.239Z,99.90
2022-08-03T01:44:27.174Z,99.90
2022-08-03T01:46:39.095Z,99.90
2022-08-03T01:49:10.451Z,99.90
2022-08-03T01:51:56.607Z,99.90
2022-08-03T01:54:34.664Z,99.90
2022-08-03T01:57:03.071Z,99.90
2022-08-03T01:59:32.501Z,99.90
2022-08-03T02:02:15.472Z,99.90
2022-08-03T02:04:49.136Z,99.90
2022-08-03T02:07:17.049Z,99.90
2022-08-03T02:09:46.929Z,99.90
2022-08-03T02:12:16.082Z,99.90
2022-08-03T02:14:45.802Z,99.90
2022-08-03T02:17:14.060Z,99.90
2022-08-03T02:19:43.100Z,99.90
2022-08-03T02:22:12.450Z,99.90
2022-08-03T02:24:40.268Z,99.90
2022-08-03T02:27:23.748Z,99.90
2022-08-03T02:29:58.771Z,99.90
2022-08-03T02:32:30.821Z,99.90
2022-08-03T02:35:00.688Z,99.90
2022-08-03T02:37:31.671Z,99.90
2022-08-03T02:40:03.385Z,99.90
2022-08-03T02:42:32.923Z,99.90
2022-08-03T02:45:02.856Z,99.90
2022-08-03T02:47:54.191Z,99.90
2022-08-03T02:50:20.448Z,99.90
2022-08-03T02:52:49.240Z,99.90
2022-08-03T02:55:17.372Z,99.90
2022-08-03T02:57:46.532Z,99.90
2022-08-03T03:00:19.521Z,99.90
2022-08-03T03:02:58.172Z,99.90
2022-08-03T03:05:54.338Z,99.90
2022-08-03T03:08:18.945Z,99.90
2022-08-03T03:10:55.427Z,99.90
2022-08-03T03:13:23.399Z,99.90
2022-08-03T03:15:52.119Z,99.90
2022-08-03T03:18:22.884Z,99.90
2022-08-03T03:20:52.613Z,99.90
2022-08-03T03:23:22.200Z,99.90
2022-08-03T03:25:49.684Z,99.90
2022-08-03T03:28:16.791Z,99.90
2022-08-03T03:30:44.261Z,99.90
2022-08-03T03:33:12.006Z,99.90
2022-08-03T03:35:41.248Z,99.90
2022-08-03T03:38:09.393Z,99.90
2022-08-03T03:40:37.558Z,99.90
2022-08-03T03:43:08.275Z,99.90
2022-08-03T03:45:35.553Z,99.90
2022-08-03T03:48:04.842Z,99.90
2022-08-03T03:50:33.410Z,99.90
2022-08-03T03:53:01.188Z,99.90
2022-08-03T03:55:28.552Z,99.90
2022-08-03T03:57:55.472Z,99.90
2022-08-03T04:00:23.214Z,99.90
2022-08-03T04:02:50.014Z,99.90
2022-08-03T04:05:35.322Z,99.90
2022-08-03T04:08:26.824Z,99.90
2022-08-03T04:11:20.516Z,99.90
2022-08-03T04:14:19.296Z,99.90
2022-08-03T04:16:53.524Z,99.90
2022-08-03T04:19:28.522Z,99.90
2022-08-03T04:21:59.182Z,99.90
2022-08-03T04:24:33.716Z,99.90
2022-08-03T04:27:04.837Z,99.90
2022-08-03T04:29:34.958Z,99.90
2022-08-03T04:32:08.083Z,99.90
2022-08-03T04:34:35.634Z,99.90
2022-08-03T04:37:10.889Z,99.90
2022-08-03T04:39:41.955Z,99.90
2022-08-03T04:42:11.576Z,99.90
2022-08-03T04:44:41.952Z,99.90
2022-08-03T04:47:09.151Z,99.90
2022-08-03T04:49:39.939Z,99.90
2022-08-03T04:52:10.212Z,99.90
2022-08-03T04:54:48.831Z,99.90
2022-08-03T04:57:22.519Z,99.90
2022-08-03T05:00:02.623Z,99.90
2022-08-03T05:02:31.382Z,99.90
2022-08-03T05:04:58.638Z,99.90
2022-08-03T05:07:25.579Z,99.90
2022-08-03T05:10:01.563Z,99.90
2022-08-03T05:12:32.885Z,99.90
2022-08-03T05:15:01.185Z,99.90
2022-08-03T05:17:28.709Z,99.90
2022-08-03T05:19:56.069Z,99.90
2022-08-03T05:22:23.935Z,99.90
2022-08-03T05:24:51.093Z,99.90
2022-08-03T05:27:19.457Z,99.90
2022-08-03T05:29:47.526Z,99.90
2022-08-03T05:32:14.648Z,99.90
2022-08-03T05:34:42.098Z,99.90
2022-08-03T05:37:09.078Z,99.90
2022-08-03T05:39:36.661Z,99.90
2022-08-03T05:42:03.677Z,99.90
2022-08-03T05:44:31.666Z,99.90
2022-08-03T05:46:59.310Z,99.90
2022-08-03T05:49:26.426Z,99.90
2022-08-03T05:52:00.236Z,99.90
2022-08-03T05:54:57.125Z,99.90
2022-08-03T05:57:26.074Z,99.90
2022-08-03T05:59:54.635Z,99.90
2022-08-03T06:02:25.576Z,99.90
2022-08-03T06:04:52.367Z,99.90
2022-08-03T06:07:19.187Z,99.90
2022-08-03T06:10:34.435Z,99.90
2022-08-03T06:12:36.167Z,99.90
2022-08-03T06:15:04.671Z,99.90
2022-08-03T06:17:37.483Z,99.90
2022-08-03T06:20:05.774Z,99.90
2022-08-03T06:22:32.602Z,99.90
2022-08-03T06:25:04.024Z,99.90
2022-08-03T06:27:37.351Z,99.90
2022-08-03T06:30:05.488Z,99.90
2022-08-03T06:32:32.473Z,99.90
2022-08-03T06:35:00.008Z,99.90
2022-08-03T06:37:27.209Z,99.90
2022-08-03T06:39:54.424Z,99.90
2022-08-03T06:42:22.661Z,99.90
2022-08-03T06:44:49.868Z,99.90
2022-08-03T06:47:17.385Z,99.90
2022-08-03T06:49:44.343Z,99.90
2022-08-03T06:52:37.847Z,99.90
2022-08-03T06:55:06.327Z,99.90
2022-08-03T06:57:33.311Z,99.90
2022-08-03T07:00:09.141Z,99.90
2022-08-03T07:02:38.840Z,99.90
2022-08-03T07:05:06.943Z,99.90
2022-08-03T07:07:33.881Z,99.90
2022-08-03T07:10:02.397Z,99.90
2022-08-03T07:12:31.184Z,99.90
2022-08-03T07:15:02.269Z,99.90
2022-08-03T07:17:32.970Z,99.90
2022-08-03T07:20:00.924Z,99.90
2022-08-03T07:22:28.516Z,99.90
2022-08-03T07:24:56.805Z,99.90
2022-08-03T07:27:23.945Z,99.90
2022-08-03T07:29:50.773Z,99.90
2022-08-03T07:32:18.056Z,99.90
2022-08-03T07:34:45.134Z,99.90
2022-08-03T07:37:12.016Z,99.90
2022-08-03T07:39:38.867Z,99.90
2022-08-03T07:42:05.854Z,99.90
2022-08-03T07:44:32.747Z,99.90
2022-08-03T07:47:00.001Z,99.90
2022-08-03T07:49:30.470Z,99.90
2022-08-03T07:52:16.431Z,99.90
2022-08-03T07:54:43.642Z,99.90
2022-08-03T07:57:10.513Z,99.90
2022-08-03T07:59:49.102Z,99.30
2022-08-03T08:02:24.309Z,98.50
2022-08-03T08:04:51.146Z,96.20
2022-08-03T08:07:18.092Z,94.80
2022-08-03T08:09:47.464Z,93.80
2022-08-03T08:12:15.178Z,93.40
2022-08-03T08:14:45.737Z,93.20
2022-08-03T08:17:13.170Z,92.70
2022-08-03T08:19:42.790Z,92.40
2022-08-03T08:22:18.611Z,91.80
2022-08-03T08:24:56.619Z,90.90
2022-08-03T08:27:23.918Z,89.10
2022-08-03T08:29:54.504Z,87.70
2022-08-03T08:32:23.768Z,88.40
2022-08-03T08:34:51.107Z,86.00
2022-08-03T08:37:18.132Z,84.00
2022-08-03T08:39:44.947Z,82.00
2022-08-03T08:42:11.850Z,82.40
2022-08-03T08:44:39.281Z,82.70
2022-08-03T08:47:08.158Z,81.20
2022-08-03T08:49:38.705Z,78.50
2022-08-03T08:52:24.801Z,77.50
2022-08-03T08:55:05.676Z,77.00
2022-08-03T08:57:43.148Z,77.00
2022-08-03T09:00:17.339Z,77.10
2022-08-03T09:03:01.918Z,77.80
2022-08-03T09:05:55.691Z,77.50
2022-08-03T09:08:23.335Z,76.80
2022-08-03T09:10:50.209Z,76.00
2022-08-03T09:13:17.482Z,76.30
2022-08-03T09:15:57.190Z,76.20
2022-08-03T09:18:32.777Z,75.50
2022-08-03T09:21:32.914Z,73.90
2022-08-03T09:24:04.844Z,75.00
2022-08-03T09:26:35.372Z,74.50
2022-08-03T09:29:14.354Z,73.30
2022-08-03T09:31:46.964Z,71.00
2022-08-03T09:34:18.213Z,70.50
2022-08-03T09:36:50.735Z,72.30
2022-08-03T09:39:30.131Z,72.60
2022-08-03T09:42:17.211Z,73.00
2022-08-03T09:44:50.063Z,71.80
2022-08-03T09:47:31.969Z,71.60
2022-08-03T09:50:05.033Z,73.50
2022-08-03T09:52:49.597Z,72.10
2022-08-03T09:56:31.555Z,74.40
2022-08-03T09:58:09.623Z,73.70
2022-08-03T10:00:54.817Z,75.80
2022-08-03T10:03:23.464Z,75.40
2022-08-03T10:05:50.363Z,78.00
2022-08-03T10:08:20.481Z,76.60
2022-08-03T10:10:50.487Z,79.00
2022-08-03T10:13:18.746Z,78.50
2022-08-03T10:16:23.556Z,78.50
2022-08-03T10:18:33.686Z,78.20
2022-08-03T10:21:10.692Z,78.80
2022-08-03T10:23:40.686Z,78.20
2022-08-03T10:26:11.672Z,72.70
2022-08-03T10:28:45.240Z,72.90
2022-08-03T10:31:14.167Z,72.50
2022-08-03T10:33:51.591Z,72.90
2022-08-03T10:36:23.682Z,72.40
2022-08-03T10:38:53.125Z,71.80
2022-08-03T10:41:21.928Z,70.10
2022-08-03T10:44:02.845Z,68.60
2022-08-03T10:46:29.703Z,66.90
2022-08-03T10:48:57.788Z,64.30
2022-08-03T10:51:29.105Z,59.30
2022-08-03T10:53:56.000Z,59.00
2022-08-03T10:56:52.332Z,59.70
2022-08-03T10:59:28.061Z,59.20
2022-08-03T11:01:59.788Z,56.90
2022-08-03T11:04:30.169Z,55.90
2022-08-03T11:07:16.746Z,55.10
2022-08-03T11:09:47.625Z,55.20
2022-08-03T11:12:32.654Z,55.30
2022-08-03T11:15:05.673Z,53.60
2022-08-03T11:17:33.836Z,51.90
2022-08-03T11:20:14.001Z,52.50
2022-08-03T11:22:51.543Z,52.10
2022-08-03T11:25:34.831Z,50.80
2022-08-03T11:28:25.314Z,50.20
2022-08-03T11:30:52.432Z,49.70
2022-08-03T11:33:32.755Z,49.60
2022-08-03T11:36:01.548Z,50.60
2022-08-03T11:38:28.457Z,49.30
2022-08-03T11:40:55.577Z,49.70
2022-08-03T11:43:22.431Z,50.20
2022-08-03T11:46:05.515Z,50.00
2022-08-03T11:48:37.838Z,49.50
2022-08-03T11:51:07.063Z,49.60
2022-08-03T11:53:42.167Z,49.30
2022-08-03T11:56:13.050Z,48.90
2022-08-03T11:59:16.469Z,48.00
2022-08-03T12:01:35.543Z,46.80
2022-08-03T12:04:06.205Z,47.50
2022-08-03T12:06:55.087Z,48.20
2022-08-03T12:09:22.450Z,49.30
2022-08-03T12:11:59.349Z,50.00
2022-08-03T12:14:50.841Z,49.90
2022-08-03T12:17:15.365Z,50.10
2022-08-03T12:19:43.341Z,50.20
2022-08-03T12:22:10.179Z,50.50
2022-08-03T12:24:46.597Z,50.60
2022-08-03T12:27:24.053Z,49.50
2022-08-03T12:29:59.366Z,49.70
2022-08-03T12:32:28.237Z,48.50
2022-08-03T12:35:00.203Z,49.40
2022-08-03T12:37:28.118Z,48.60
2022-08-03T12:40:02.107Z,49.10
2022-08-03T12:42:34.992Z,49.70
2022-08-03T12:45:31.948Z,49.50
2022-08-03T12:48:02.404Z,46.90
2022-08-03T12:50:31.962Z,47.50
2022-08-03T12:53:00.092Z,47.50
2022-08-03T12:55:56.592Z,47.30
2022-08-03T12:58:34.009Z,48.20
2022-08-03T13:01:04.989Z,47.60
2022-08-03T13:03:49.565Z,47.00
2022-08-03T13:06:25.527Z,46.50
2022-08-03T13:09:04.473Z,47.40
2022-08-03T13:11:57.660Z,47.30
2022-08-03T13:14:20.339Z,46.30
2022-08-03T13:16:48.447Z,46.50
2022-08-03T13:19:16.201Z,46.60
2022-08-03T13:22:02.169Z,47.40
2022-08-03T13:24:32.538Z,46.80
2022-08-03T13:27:00.182Z,47.40
2022-08-03T13:29:27.001Z,46.70
2022-08-03T13:31:54.063Z,47.00
2022-08-03T13:34:23.451Z,46.20
2022-08-03T13:37:09.439Z,46.20
2022-08-03T13:39:58.109Z,46.30
2022-08-03T13:42:24.241Z,46.40
2022-08-03T13:44:51.126Z,46.70
2022-08-03T13:47:18.274Z,47.70
2022-08-03T13:49:59.780Z,48.20
2022-08-03T13:52:30.415Z,48.00
2022-08-03T13:54:57.238Z,48.10
2022-08-03T13:58:11.728Z,46.60
2022-08-03T14:00:12.211Z,46.20
2022-08-03T14:02:39.139Z,47.10
2022-08-03T14:05:06.160Z,46.00
2022-08-03T14:07:32.979Z,46.70
2022-08-03T14:10:01.601Z,48.00
2022-08-03T14:12:28.723Z,48.70
2022-08-03T14:14:58.262Z,47.10
2022-08-03T14:17:28.018Z,48.20
2022-08-03T14:20:36.774Z,48.90
2022-08-03T14:22:56.946Z,48.70
2022-08-03T14:25:23.832Z,49.20
2022-08-03T14:27:50.785Z,48.10
2022-08-03T14:30:17.898Z,49.00
2022-08-03T14:32:44.907Z,48.40
2022-08-03T14:35:12.029Z,49.20
2022-08-03T14:37:38.942Z,50.20
2022-08-03T14:40:06.706Z,50.00
2022-08-03T14:42:33.637Z,51.40
2022-08-03T14:45:03.595Z,52.30
2022-08-03T14:47:34.447Z,52.20
2022-08-03T14:50:35.702Z,52.20
2022-08-03T14:53:07.766Z,52.60
2022-08-03T14:55:38.033Z,53.50
2022-08-03T14:58:19.597Z,53.70
2022-08-03T15:00:49.279Z,53.90
2022-08-03T15:03:16.779Z,54.30
2022-08-03T15:05:44.533Z,55.00
2022-08-03T15:08:11.799Z,54.40
2022-08-03T15:10:40.606Z,55.10
2022-08-03T15:13:12.939Z,55.70
2022-08-03T15:15:40.929Z,55.70
2022-08-03T15:18:08.091Z,56.10
2022-08-03T15:20:51.058Z,56.30
2022-08-03T15:23:18.696Z,56.90
2022-08-03T15:26:27.885Z,57.60
2022-08-03T15:28:33.177Z,58.30
2022-08-03T15:31:00.909Z,58.10
2022-08-03T15:33:28.551Z,58.30
2022-08-03T15:35:56.655Z,57.90
2022-08-03T15:38:25.966Z,57.40
2022-08-03T15:40:56.794Z,57.70
2022-08-03T15:43:24.076Z,58.60
2022-08-03T15:46:19.215Z,59.60
2022-08-03T15:48:39.170Z,60.70
2022-08-03T15:51:07.245Z,60.60
2022-08-03T15:53:34.210Z,61.60
2022-08-03T15:56:09.851Z,62.30
2022-08-03T15:59:09.341Z,63.40
2022-08-03T16:01:28.861Z,62.80
2022-08-03T16:03:55.759Z,62.10
2022-08-03T16:06:29.531Z,61.50
2022-08-03T16:09:01.823Z,62.70
2022-08-03T16:11:28.809Z,63.40
2022-08-03T16:14:13.257Z,63.90
2022-08-03T16:16:42.628Z,64.00
2022-08-03T16:19:09.568Z,63.70
2022-08-03T16:21:47.351Z,64.00
2022-08-03T16:24:17.314Z,65.10
2022-08-03T16:26:46.834Z,64.90
2022-08-03T16:29:22.706Z,66.10
2022-08-03T16:31:50.978Z,66.10
2022-08-03T16:34:18.249Z,66.70
2022-08-03T16:36:45.883Z,66.90
2022-08-03T16:39:12.952Z,67.50
2022-08-03T16:41:54.360Z,67.90
2022-08-03T16:44:27.396Z,68.90
2022-08-03T16:46:54.563Z,69.40
2022-08-03T16:49:53.858Z,69.50
2022-08-03T16:52:08.282Z,69.80
2022-08-03T16:54:35.282Z,70.40
2022-08-03T16:57:02.242Z,71.20
2022-08-03T16:59:36.322Z,71.70
2022-08-03T17:02:09.872Z,71.80
2022-08-03T17:04:40.232Z,72.50
2022-08-03T17:07:08.829Z,72.60
2022-08-03T17:09:38.826Z,73.30
2022-08-03T17:12:06.368Z,73.90
2022-08-03T17:14:34.096Z,74.60
2022-08-03T17:17:04.138Z,74.90
2022-08-03T17:19:32.522Z,75.50
2022-08-03T17:22:09.098Z,75.80
2022-08-03T17:24:41.022Z,77.20
2022-08-03T17:28:41.934Z,77.60
2022-08-03T17:30:07.757Z,78.10
2022-08-03T17:32:42.812Z,78.70
2022-08-03T17:35:20.779Z,79.10
2022-08-03T17:37:58.446Z,79.70
2022-08-03T17:40:31.471Z,80.10
2022-08-03T17:43:00.755Z,80.50
2022-08-03T17:45:52.285Z,81.50
2022-08-03T17:48:18.620Z,82.10
2022-08-03T17:51:15.489Z,82.50
2022-08-03T17:53:50.183Z,82.50
2022-08-03T17:56:44.682Z,83.00
2022-08-03T17:59:15.852Z,83.20
2022-08-03T18:02:27.959Z,83.70
2022-08-03T18:05:16.685Z,84.00
2022-08-03T18:08:00.850Z,84.80
2022-08-03T18:10:35.301Z,85.60
2022-08-03T18:13:12.557Z,86.50
2022-08-03T18:15:46.609Z,87.90
2022-08-03T18:18:29.321Z,87.60
2022-08-03T18:21:04.645Z,88.30
2022-08-03T18:23:36.835Z,88.90
2022-08-03T18:26:10.811Z,89.00
2022-08-03T18:28:40.627Z,89.30
2022-08-03T18:31:11.552Z,90.00
2022-08-03T18:34:18.322Z,90.20
2022-08-03T18:36:30.416Z,90.40
2022-08-03T18:38:59.669Z,90.70
2022-08-03T18:41:32.172Z,91.00
2022-08-03T18:44:07.310Z,91.30
2022-08-03T18:46:41.126Z,91.60
2022-08-03T18:49:30.853Z,92.00
2022-08-03T18:52:12.257Z,92.30
2022-08-03T18:55:09.414Z,92.50
2022-08-03T18:57:54.660Z,92.70
2022-08-03T19:00:23.890Z,93.10
2022-08-03T19:03:05.932Z,93.40
2022-08-03T19:05:53.746Z,93.70
2022-08-03T19:08:48.183Z,94.10
2022-08-03T19:12:11.059Z,94.60
2022-08-03T19:14:23.130Z,95.20
2022-08-03T19:17:07.168Z,95.70
2022-08-03T19:19:43.481Z,96.10
2022-08-03T19:22:16.558Z,96.40
2022-08-03T19:24:46.359Z,96.80
2022-08-03T19:27:14.238Z,97.10
2022-08-03T19:29:59.408Z,97.50
2022-08-03T19:32:32.454Z,98.10
2022-08-03T19:35:04.147Z,98.60
2022-08-03T19:37:37.994Z,99.00
2022-08-03T19:40:19.804Z,99.70
2022-08-03T19:42:50.097Z,99.90
2022-08-03T19:46:06.335Z,99.90
2022-08-03T19:48:17.520Z,99.90
2022-08-03T19:50:45.402Z,99.90
2022-08-03T19:53:13.124Z,99.90
2022-08-03T19:55:48.973Z,99.90
2022-08-03T19:58:28.432Z,99.90
2022-08-03T20:00:55.898Z,99.90
2022-08-03T20:03:26.501Z,99.90
2022-08-03T20:08:44.090Z,99.90
2022-08-03T20:11:11.831Z,99.90
2022-08-03T20:13:38.900Z,99.90
2022-08-03T20:16:06.316Z,99.90
2022-08-03T20:18:39.289Z,99.90
2022-08-03T20:21:14.790Z,99.90
2022-08-03T20:23:58.070Z,99.90
2022-08-03T20:26:31.004Z,99.90
2022-08-03T20:29:09.907Z,99.90
2022-08-03T20:31:37.646Z,99.90
2022-08-03T20:34:06.270Z,99.90
2022-08-03T20:36:33.244Z,99.90
2022-08-03T20:39:00.250Z,99.90
2022-08-03T20:41:27.287Z,99.90
2022-08-03T20:43:54.369Z,99.90
2022-08-03T20:46:31.053Z,99.90
2022-08-03T20:49:05.333Z,99.90
2022-08-03T20:51:52.707Z,99.90
2022-08-03T20:54:31.365Z,99.90
2022-08-03T20:57:03.765Z,99.90
2022-08-03T20:59:47.639Z,99.90
2022-08-03T21:02:29.545Z,99.90
2022-08-03T21:04:58.555Z,99.90
2022-08-03T21:07:45.991Z,99.90
2022-08-03T21:10:16.745Z,99.90
2022-08-03T21:13:03.561Z,99.90
2022-08-03T21:13:22.600Z,99.90
2022-08-03T21:16:02.313Z,99.90
2022-08-03T21:18:51.244Z,99.90
2022-08-03T22:35:28.000Z,99.90
2022-08-03T22:37:57.245Z,99.90
2022-08-03T22:40:24.172Z,99.90
2022-08-03T22:42:52.643Z,99.90
2022-08-03T22:46:07.979Z,99.90
2022-08-03T22:48:08.229Z,99.90
2022-08-03T22:50:35.587Z,99.90
2022-08-03T22:53:03.486Z,99.90
2022-08-03T22:55:31.015Z,99.90
2022-08-03T22:57:57.984Z,99.90
2022-08-03T23:00:25.204Z,99.90
2022-08-03T23:02:54.724Z,99.90
2022-08-03T23:06:00.476Z,99.90
2022-08-03T23:08:14.606Z,99.90
2022-08-03T23:10:46.724Z,99.90
2022-08-03T23:13:16.623Z,99.90
2022-08-03T23:15:55.120Z,99.90
2022-08-03T23:18:23.392Z,99.90
2022-08-03T23:20:54.110Z,99.90
2022-08-03T23:23:23.564Z,99.90
2022-08-03T23:25:51.451Z,99.90
2022-08-03T23:28:19.212Z,99.90
2022-08-03T23:30:46.845Z,99.90
2022-08-03T23:33:16.388Z,99.90
2022-08-03T23:36:18.817Z,99.90
2022-08-03T23:38:47.681Z,99.90
2022-08-03T23:41:17.494Z,99.90
2022-08-03T23:43:51.757Z,99.90
2022-08-03T23:46:25.807Z,99.90
2022-08-03T23:48:53.811Z,99.90
2022-08-03T23:51:29.573Z,99.90
2022-08-03T23:54:41.256Z,99.90
2022-08-03T23:57:19.435Z,99.90
